sensor_id;sensor_type;location;lat;lon;timestamp;temperature;humidity
1704;DHT22;849;48.780;9.216;2022-08-11T00:01:27;22.60;51.20
1704;DHT22;849;48.780;9.216;2022-08-11T00:03:58;22.40;51.30
1704;DHT22;849;48.780;9.216;2022-08-11T00:06:28;22.40;51.60
1704;DHT22;849;48.780;9.216;2022-08-11T00:08:56;22.30;51.60
1704;DHT22;849;48.780;9.216;2022-08-11T00:11:43;22.30;51.80
1704;DHT22;849;48.780;9.216;2022-08-11T00:14:18;22.20;51.90
1704;DHT22;849;48.780;9.216;2022-08-11T00:16:58;22.10;51.90
1704;DHT22;849;48.780;9.216;2022-08-11T00:19:31;22.20;52.20
1704;DHT22;849;48.780;9.216;2022-08-11T00:21:57;22.20;52.00
1704;DHT22;849;48.780;9.216;2022-08-11T00:24:24;22.20;52.10
1704;DHT22;849;48.780;9.216;2022-08-11T00:26:53;22.10;52.10
1704;DHT22;849;48.780;9.216;2022-08-11T00:29:20;22.00;52.20
1704;DHT22;849;48.780;9.216;2022-08-11T00:31:49;22.00;52.30
1704;DHT22;849;48.780;9.216;2022-08-11T00:34:19;22.00;52.30
1704;DHT22;849;48.780;9.216;2022-08-11T00:36:56;22.00;52.30
1704;DHT22;849;48.780;9.216;2022-08-11T00:39:24;21.90;52.40
1704;DHT22;849;48.780;9.216;2022-08-11T00:42:39;21.90;52.70
1704;DHT22;849;48.780;9.216;2022-08-11T00:56:12;21.70;52.90
1704;DHT22;849;48.780;9.216;2022-08-11T01:04:55;21.60;53.10
1704;DHT22;849;48.780;9.216;2022-08-11T01:08:15;21.60;53.30
1704;DHT22;849;48.780;9.216;2022-08-11T01:27:39;21.40;54.40
1704;DHT22;849;48.780;9.216;2022-08-11T01:30:47;21.40;54.50
1704;DHT22;849;48.780;9.216;2022-08-11T01:36:50;21.40;54.80
1704;DHT22;849;48.780;9.216;2022-08-11T01:39:58;21.30;54.50
1704;DHT22;849;48.780;9.216;2022-08-11T01:45:58;21.10;55.00
1704;DHT22;849;48.780;9.216;2022-08-11T01:57:40;21.00;55.40
1704;DHT22;849;48.780;9.216;2022-08-11T02:00:08;21.10;55.30
1704;DHT22;849;48.780;9.216;2022-08-11T02:03:08;21.00;55.40
1704;DHT22;849;48.780;9.216;2022-08-11T02:05:46;20.90;55.40
1704;DHT22;849;48.780;9.216;2022-08-11T02:08:34;20.90;55.80
1704;DHT22;849;48.780;9.216;2022-08-11T02:11:23;20.90;55.80
1704;DHT22;849;48.780;9.216;2022-08-11T02:17:18;20.90;56.10
1704;DHT22;849;48.780;9.216;2022-08-11T02:20:03;20.80;56.10
1704;DHT22;849;48.780;9.216;2022-08-11T02:23:01;20.90;56.30
1704;DHT22;849;48.780;9.216;2022-08-11T02:25:55;21.00;55.90
1704;DHT22;849;48.780;9.216;2022-08-11T02:31:08;20.90;56.20
1704;DHT22;849;48.780;9.216;2022-08-11T02:34:12;20.80;56.60
1704;DHT22;849;48.780;9.216;2022-08-11T02:37:15;20.50;57.00
1704;DHT22;849;48.780;9.216;2022-08-11T02:42:33;20.40;57.00
1704;DHT22;849;48.780;9.216;2022-08-11T02:49:25;20.40;57.40
1704;DHT22;849;48.780;9.216;2022-08-11T02:54:26;20.60;57.40
1704;DHT22;849;48.780;9.216;2022-08-11T03:00:05;20.50;57.40
1704;DHT22;849;48.780;9.216;2022-08-11T03:03:28;20.40;57.40
1704;DHT22;849;48.780;9.216;2022-08-11T03:06:07;20.40;57.60
1704;DHT22;849;48.780;9.216;2022-08-11T03:08:53;20.30;57.60
1704;DHT22;849;48.780;9.216;2022-08-11T03:11:49;20.30;58.00
1704;DHT22;849;48.780;9.216;2022-08-11T03:17:29;20.40;57.80
1704;DHT22;849;48.780;9.216;2022-08-11T03:20:16;20.20;57.90
1704;DHT22;849;48.780;9.216;2022-08-11T03:28:24;20.00;58.70
1704;DHT22;849;48.780;9.216;2022-08-11T03:34:02;20.00;59.10
1704;DHT22;849;48.780;9.216;2022-08-11T03:39:21;19.90;59.20
1704;DHT22;849;48.780;9.216;2022-08-11T03:44:42;19.90;59.20
1704;DHT22;849;48.780;9.216;2022-08-11T03:59:16;19.90;59.60
1704;DHT22;849;48.780;9.216;2022-08-11T04:08:00;19.70;60.00
1704;DHT22;849;48.780;9.216;2022-08-11T04:24:53;19.60;60.30
1704;DHT22;849;48.780;9.216;2022-08-11T04:33:33;19.50;60.60
1704;DHT22;849;48.780;9.216;2022-08-11T04:41:52;19.50;61.00
1704;DHT22;849;48.780;9.216;2022-08-11T04:44:56;19.50;61.20
1704;DHT22;849;48.780;9.216;2022-08-11T04:54:22;19.60;61.80
1704;DHT22;849;48.780;9.216;2022-08-11T04:57:36;19.70;61.80
1704;DHT22;849;48.780;9.216;2022-08-11T05:00:29;19.70;61.80
1704;DHT22;849;48.780;9.216;2022-08-11T05:09:06;19.80;62.30
1704;DHT22;849;48.780;9.216;2022-08-11T05:17:36;20.00;63.30
1704;DHT22;849;48.780;9.216;2022-08-11T05:20:24;20.10;63.40
1704;DHT22;849;48.780;9.216;2022-08-11T05:23:09;20.20;63.40
1704;DHT22;849;48.780;9.216;2022-08-11T05:25:56;20.20;62.20
1704;DHT22;849;48.780;9.216;2022-08-11T05:28:53;20.20;62.10
1704;DHT22;849;48.780;9.216;2022-08-11T05:31:40;20.30;62.00
1704;DHT22;849;48.780;9.216;2022-08-11T05:34:42;20.30;61.00
1704;DHT22;849;48.780;9.216;2022-08-11T05:37:22;20.30;61.20
1704;DHT22;849;48.780;9.216;2022-08-11T05:39:52;20.40;60.60
1704;DHT22;849;48.780;9.216;2022-08-11T05:42:43;20.40;60.00
1704;DHT22;849;48.780;9.216;2022-08-11T05:45:33;20.50;60.00
1704;DHT22;849;48.780;9.216;2022-08-11T05:48:18;20.50;60.50
1704;DHT22;849;48.780;9.216;2022-08-11T05:51:03;20.60;59.70
1704;DHT22;849;48.780;9.216;2022-08-11T05:53:51;20.70;60.00
1704;DHT22;849;48.780;9.216;2022-08-11T05:57:02;20.70;59.80
1704;DHT22;849;48.780;9.216;2022-08-11T05:59:28;20.70;59.50
1704;DHT22;849;48.780;9.216;2022-08-11T06:02:04;20.80;59.70
1704;DHT22;849;48.780;9.216;2022-08-11T06:04:30;20.90;59.70
1704;DHT22;849;48.780;9.216;2022-08-11T06:07:04;21.00;59.90
1704;DHT22;849;48.780;9.216;2022-08-11T06:12:27;21.20;60.10
1704;DHT22;849;48.780;9.216;2022-08-11T06:15:00;21.20;58.90
1704;DHT22;849;48.780;9.216;2022-08-11T06:17:28;21.20;58.70
1704;DHT22;849;48.780;9.216;2022-08-11T06:20:06;21.30;58.70
1704;DHT22;849;48.780;9.216;2022-08-11T06:22:37;21.20;58.00
1704;DHT22;849;48.780;9.216;2022-08-11T06:25:05;21.20;58.50
1704;DHT22;849;48.780;9.216;2022-08-11T06:27:35;21.30;58.10
1704;DHT22;849;48.780;9.216;2022-08-11T06:30:03;21.20;57.90
1704;DHT22;849;48.780;9.216;2022-08-11T06:32:44;21.30;57.60
1704;DHT22;849;48.780;9.216;2022-08-11T06:40:55;21.20;57.80
1704;DHT22;849;48.780;9.216;2022-08-11T06:46:38;21.30;58.20
1704;DHT22;849;48.780;9.216;2022-08-11T06:49:08;21.40;58.40
1704;DHT22;849;48.780;9.216;2022-08-11T06:51:57;21.50;58.10
1704;DHT22;849;48.780;9.216;2022-08-11T06:54:28;21.70;58.20
1704;DHT22;849;48.780;9.216;2022-08-11T06:56:54;21.70;57.80
1704;DHT22;849;48.780;9.216;2022-08-11T06:59:40;21.60;57.70
1704;DHT22;849;48.780;9.216;2022-08-11T07:02:36;21.70;57.90
1704;DHT22;849;48.780;9.216;2022-08-11T07:05:20;21.70;57.90
1704;DHT22;849;48.780;9.216;2022-08-11T07:13:53;21.90;57.60
1704;DHT22;849;48.780;9.216;2022-08-11T07:16:41;21.80;57.90
1704;DHT22;849;48.780;9.216;2022-08-11T07:19:09;21.90;57.30
1704;DHT22;849;48.780;9.216;2022-08-11T07:21:55;22.00;57.40
1704;DHT22;849;48.780;9.216;2022-08-11T07:24:45;22.20;57.50
1704;DHT22;849;48.780;9.216;2022-08-11T07:27:57;22.40;57.70
1704;DHT22;849;48.780;9.216;2022-08-11T07:30:40;22.30;57.60
1704;DHT22;849;48.780;9.216;2022-08-11T07:33:07;22.30;57.60
1704;DHT22;849;48.780;9.216;2022-08-11T07:35:48;22.30;57.20
1704;DHT22;849;48.780;9.216;2022-08-11T07:38:19;22.40;56.90
1704;DHT22;849;48.780;9.216;2022-08-11T07:40:46;22.50;56.40
1704;DHT22;849;48.780;9.216;2022-08-11T07:43:13;22.50;56.90
1704;DHT22;849;48.780;9.216;2022-08-11T07:45:43;22.40;57.40
1704;DHT22;849;48.780;9.216;2022-08-11T07:48:29;22.50;56.50
1704;DHT22;849;48.780;9.216;2022-08-11T07:51:22;22.60;56.80
1704;DHT22;849;48.780;9.216;2022-08-11T07:54:07;22.70;57.20
1704;DHT22;849;48.780;9.216;2022-08-11T07:56:37;22.70;57.10
1704;DHT22;849;48.780;9.216;2022-08-11T07:59:04;22.80;56.20
1704;DHT22;849;48.780;9.216;2022-08-11T08:01:49;22.80;56.30
1704;DHT22;849;48.780;9.216;2022-08-11T08:04:34;22.90;56.30
1704;DHT22;849;48.780;9.216;2022-08-11T08:07:20;22.90;56.40
1704;DHT22;849;48.780;9.216;2022-08-11T08:10:06;22.90;56.30
1704;DHT22;849;48.780;9.216;2022-08-11T08:12:55;23.00;56.30
1704;DHT22;849;48.780;9.216;2022-08-11T08:15:41;23.10;56.30
1704;DHT22;849;48.780;9.216;2022-08-11T08:18:27;23.20;56.20
1704;DHT22;849;48.780;9.216;2022-08-11T08:20:55;23.30;55.50
1704;DHT22;849;48.780;9.216;2022-08-11T08:23:37;23.30;55.80
1704;DHT22;849;48.780;9.216;2022-08-11T08:26:05;23.40;55.30
1704;DHT22;849;48.780;9.216;2022-08-11T08:28:52;23.50;55.10
1704;DHT22;849;48.780;9.216;2022-08-11T08:31:18;23.70;54.30
1704;DHT22;849;48.780;9.216;2022-08-11T08:33:44;23.70;54.50
1704;DHT22;849;48.780;9.216;2022-08-11T08:36:10;23.70;54.40
1704;DHT22;849;48.780;9.216;2022-08-11T08:38:41;24.00;53.60
1704;DHT22;849;48.780;9.216;2022-08-11T08:41:08;24.00;54.00
1704;DHT22;849;48.780;9.216;2022-08-11T08:43:35;24.00;53.80
1704;DHT22;849;48.780;9.216;2022-08-11T08:46:03;24.00;53.30
1704;DHT22;849;48.780;9.216;2022-08-11T08:48:31;24.10;52.80
1704;DHT22;849;48.780;9.216;2022-08-11T08:51:02;24.00;53.60
1704;DHT22;849;48.780;9.216;2022-08-11T08:53:49;24.30;53.40
1704;DHT22;849;48.780;9.216;2022-08-11T08:56:16;24.40;52.70
1704;DHT22;849;48.780;9.216;2022-08-11T08:58:45;24.30;52.90
1704;DHT22;849;48.780;9.216;2022-08-11T09:01:14;24.40;52.60
1704;DHT22;849;48.780;9.216;2022-08-11T09:03:41;24.60;52.40
1704;DHT22;849;48.780;9.216;2022-08-11T09:06:07;24.60;52.00
1704;DHT22;849;48.780;9.216;2022-08-11T09:08:34;24.50;51.10
1704;DHT22;849;48.780;9.216;2022-08-11T09:11:02;24.60;52.20
1704;DHT22;849;48.780;9.216;2022-08-11T09:13:46;24.60;52.20
1704;DHT22;849;48.780;9.216;2022-08-11T09:16:13;24.70;50.90
1704;DHT22;849;48.780;9.216;2022-08-11T09:18:41;24.80;51.00
1704;DHT22;849;48.780;9.216;2022-08-11T09:21:11;24.90;50.20
1704;DHT22;849;48.780;9.216;2022-08-11T09:23:40;25.00;49.90
1704;DHT22;849;48.780;9.216;2022-08-11T09:26:25;25.00;49.50
1704;DHT22;849;48.780;9.216;2022-08-11T09:29:10;24.90;48.90
1704;DHT22;849;48.780;9.216;2022-08-11T09:31:36;25.00;49.50
1704;DHT22;849;48.780;9.216;2022-08-11T09:34:02;25.00;49.50
1704;DHT22;849;48.780;9.216;2022-08-11T09:36:29;25.30;49.20
1704;DHT22;849;48.780;9.216;2022-08-11T09:39:13;25.10;49.20
1704;DHT22;849;48.780;9.216;2022-08-11T09:42:01;25.30;48.70
1704;DHT22;849;48.780;9.216;2022-08-11T09:44:27;25.30;49.40
1704;DHT22;849;48.780;9.216;2022-08-11T09:47:11;25.30;49.20
1704;DHT22;849;48.780;9.216;2022-08-11T09:49:44;25.30;49.20
1704;DHT22;849;48.780;9.216;2022-08-11T09:52:11;25.50;49.30
1704;DHT22;849;48.780;9.216;2022-08-11T09:54:40;25.60;48.60
1704;DHT22;849;48.780;9.216;2022-08-11T09:57:07;25.70;48.60
1704;DHT22;849;48.780;9.216;2022-08-11T09:59:52;25.90;47.30
1704;DHT22;849;48.780;9.216;2022-08-11T10:02:24;25.90;48.50
1704;DHT22;849;48.780;9.216;2022-08-11T10:04:51;25.70;48.00
1704;DHT22;849;48.780;9.216;2022-08-11T10:07:19;25.90;48.10
1704;DHT22;849;48.780;9.216;2022-08-11T10:09:51;25.90;47.10
1704;DHT22;849;48.780;9.216;2022-08-11T10:12:22;26.00;48.80
1704;DHT22;849;48.780;9.216;2022-08-11T10:15:07;26.00;48.80
1704;DHT22;849;48.780;9.216;2022-08-11T10:18:06;26.20;46.70
1704;DHT22;849;48.780;9.216;2022-08-11T10:20:54;26.20;47.30
1704;DHT22;849;48.780;9.216;2022-08-11T10:23:22;26.30;46.80
1704;DHT22;849;48.780;9.216;2022-08-11T10:26:07;26.20;47.30
1704;DHT22;849;48.780;9.216;2022-08-11T10:28:52;26.10;47.70
1704;DHT22;849;48.780;9.216;2022-08-11T10:31:20;25.90;45.80
1704;DHT22;849;48.780;9.216;2022-08-11T10:34:07;25.90;47.30
1704;DHT22;849;48.780;9.216;2022-08-11T10:36:39;26.10;47.10
1704;DHT22;849;48.780;9.216;2022-08-11T10:39:14;26.10;48.50
1704;DHT22;849;48.780;9.216;2022-08-11T10:41:44;26.10;47.60
1704;DHT22;849;48.780;9.216;2022-08-11T10:44:31;26.10;47.00
1704;DHT22;849;48.780;9.216;2022-08-11T10:47:01;26.10;47.60
1704;DHT22;849;48.780;9.216;2022-08-11T10:49:46;26.30;46.80
1704;DHT22;849;48.780;9.216;2022-08-11T10:52:32;26.30;46.40
1704;DHT22;849;48.780;9.216;2022-08-11T10:55:18;26.30;45.90
1704;DHT22;849;48.780;9.216;2022-08-11T10:58:02;26.30;45.70
1704;DHT22;849;48.780;9.216;2022-08-11T11:00:47;26.30;45.70
1704;DHT22;849;48.780;9.216;2022-08-11T11:03:15;26.30;45.80
1704;DHT22;849;48.780;9.216;2022-08-11T11:05:42;26.50;45.70
1704;DHT22;849;48.780;9.216;2022-08-11T11:08:13;26.50;46.50
1704;DHT22;849;48.780;9.216;2022-08-11T11:10:58;26.80;45.10
1704;DHT22;849;48.780;9.216;2022-08-11T11:13:25;26.80;46.80
1704;DHT22;849;48.780;9.216;2022-08-11T11:16:11;26.80;45.80
1704;DHT22;849;48.780;9.216;2022-08-11T11:19:00;26.50;45.60
1704;DHT22;849;48.780;9.216;2022-08-11T11:21:27;26.30;45.60
1704;DHT22;849;48.780;9.216;2022-08-11T11:24:26;26.30;45.30
1704;DHT22;849;48.780;9.216;2022-08-11T11:27:27;26.40;45.20
1704;DHT22;849;48.780;9.216;2022-08-11T11:37:44;26.90;42.80
1704;DHT22;849;48.780;9.216;2022-08-11T11:40:15;26.90;43.10
1704;DHT22;849;48.780;9.216;2022-08-11T11:42:43;27.20;43.10
1704;DHT22;849;48.780;9.216;2022-08-11T11:45:13;27.40;42.70
1704;DHT22;849;48.780;9.216;2022-08-11T11:47:40;27.50;42.40
1704;DHT22;849;48.780;9.216;2022-08-11T11:50:07;27.60;42.50
1704;DHT22;849;48.780;9.216;2022-08-11T11:52:34;27.40;42.00
1704;DHT22;849;48.780;9.216;2022-08-11T11:55:02;27.50;42.20
1704;DHT22;849;48.780;9.216;2022-08-11T11:57:37;27.50;41.70
1704;DHT22;849;48.780;9.216;2022-08-11T12:00:24;27.60;42.00
1704;DHT22;849;48.780;9.216;2022-08-11T12:03:09;27.60;41.10
1704;DHT22;849;48.780;9.216;2022-08-11T12:05:37;27.50;41.50
1704;DHT22;849;48.780;9.216;2022-08-11T12:08:05;27.60;40.10
1704;DHT22;849;48.780;9.216;2022-08-11T12:11:02;27.70;41.10
1704;DHT22;849;48.780;9.216;2022-08-11T12:13:48;27.90;41.20
1704;DHT22;849;48.780;9.216;2022-08-11T12:16:17;27.70;41.00
1704;DHT22;849;48.780;9.216;2022-08-11T12:18:46;28.00;40.20
1704;DHT22;849;48.780;9.216;2022-08-11T12:21:14;28.00;40.90
1704;DHT22;849;48.780;9.216;2022-08-11T12:23:41;27.90;41.30
1704;DHT22;849;48.780;9.216;2022-08-11T12:26:27;28.10;41.40
1704;DHT22;849;48.780;9.216;2022-08-11T12:29:12;28.30;40.10
1704;DHT22;849;48.780;9.216;2022-08-11T12:31:39;28.30;40.70
1704;DHT22;849;48.780;9.216;2022-08-11T12:34:11;28.10;40.50
1704;DHT22;849;48.780;9.216;2022-08-11T12:36:39;28.20;40.20
1704;DHT22;849;48.780;9.216;2022-08-11T12:39:10;28.20;40.40
1704;DHT22;849;48.780;9.216;2022-08-11T12:41:37;28.30;40.30
1704;DHT22;849;48.780;9.216;2022-08-11T12:44:25;28.30;39.50
1704;DHT22;849;48.780;9.216;2022-08-11T12:47:14;28.30;40.30
1704;DHT22;849;48.780;9.216;2022-08-11T12:49:45;28.20;39.50
1704;DHT22;849;48.780;9.216;2022-08-11T12:52:34;28.30;40.40
1704;DHT22;849;48.780;9.216;2022-08-11T12:55:02;28.60;39.40
1704;DHT22;849;48.780;9.216;2022-08-11T12:57:38;28.50;39.70
1704;DHT22;849;48.780;9.216;2022-08-11T13:00:25;28.50;39.20
1704;DHT22;849;48.780;9.216;2022-08-11T13:03:12;28.50;40.20
1704;DHT22;849;48.780;9.216;2022-08-11T13:05:59;28.60;39.50
1704;DHT22;849;48.780;9.216;2022-08-11T13:08:28;28.60;39.70
1704;DHT22;849;48.780;9.216;2022-08-11T13:10:58;28.60;39.70
1704;DHT22;849;48.780;9.216;2022-08-11T13:13:45;28.60;38.60
1704;DHT22;849;48.780;9.216;2022-08-11T13:16:12;28.40;38.80
1704;DHT22;849;48.780;9.216;2022-08-11T13:18:40;28.50;38.80
1704;DHT22;849;48.780;9.216;2022-08-11T13:21:08;28.60;39.70
1704;DHT22;849;48.780;9.216;2022-08-11T13:23:35;28.90;38.90
1704;DHT22;849;48.780;9.216;2022-08-11T13:26:02;29.20;38.00
1704;DHT22;849;48.780;9.216;2022-08-11T13:28:28;29.10;38.60
1704;DHT22;849;48.780;9.216;2022-08-11T13:30:54;29.10;38.90
1704;DHT22;849;48.780;9.216;2022-08-11T13:33:43;29.20;39.30
1704;DHT22;849;48.780;9.216;2022-08-11T13:36:11;29.20;38.90
1704;DHT22;849;48.780;9.216;2022-08-11T13:38:39;29.10;38.60
1704;DHT22;849;48.780;9.216;2022-08-11T13:41:07;29.40;38.70
1704;DHT22;849;48.780;9.216;2022-08-11T13:43:54;29.40;38.00
1704;DHT22;849;48.780;9.216;2022-08-11T13:46:21;29.60;38.80
1704;DHT22;849;48.780;9.216;2022-08-11T13:48:54;29.60;37.90
1704;DHT22;849;48.780;9.216;2022-08-11T13:51:20;29.70;38.60
1704;DHT22;849;48.780;9.216;2022-08-11T13:54:02;29.80;38.20
1704;DHT22;849;48.780;9.216;2022-08-11T13:56:30;29.60;37.80
1704;DHT22;849;48.780;9.216;2022-08-11T13:58:56;29.90;37.00
1704;DHT22;849;48.780;9.216;2022-08-11T14:01:27;29.90;37.20
1704;DHT22;849;48.780;9.216;2022-08-11T14:03:55;29.70;37.30
1704;DHT22;849;48.780;9.216;2022-08-11T14:06:24;29.60;37.80
1704;DHT22;849;48.780;9.216;2022-08-11T14:08:51;29.70;37.70
1704;DHT22;849;48.780;9.216;2022-08-11T14:11:18;29.90;37.40
1704;DHT22;849;48.780;9.216;2022-08-11T14:14:04;30.20;37.50
1704;DHT22;849;48.780;9.216;2022-08-11T14:16:34;30.20;36.10
1704;DHT22;849;48.780;9.216;2022-08-11T14:19:04;30.00;36.50
1704;DHT22;849;48.780;9.216;2022-08-11T14:21:36;30.00;36.80
1704;DHT22;849;48.780;9.216;2022-08-11T14:24:21;29.90;36.30
1704;DHT22;849;48.780;9.216;2022-08-11T14:26:48;29.90;36.40
1704;DHT22;849;48.780;9.216;2022-08-11T14:29:20;29.90;36.80
1704;DHT22;849;48.780;9.216;2022-08-11T14:31:52;30.10;36.50
1704;DHT22;849;48.780;9.216;2022-08-11T14:34:21;30.60;37.00
1704;DHT22;849;48.780;9.216;2022-08-11T14:36:51;30.80;36.30
1704;DHT22;849;48.780;9.216;2022-08-11T14:39:20;30.80;36.50
1704;DHT22;849;48.780;9.216;2022-08-11T14:41:50;30.80;35.90
1704;DHT22;849;48.780;9.216;2022-08-11T14:44:37;30.70;35.60
1704;DHT22;849;48.780;9.216;2022-08-11T14:47:22;30.60;35.30
1704;DHT22;849;48.780;9.216;2022-08-11T14:49:49;30.70;35.80
1704;DHT22;849;48.780;9.216;2022-08-11T14:52:16;31.00;36.00
1704;DHT22;849;48.780;9.216;2022-08-11T14:54:45;31.30;35.20
1704;DHT22;849;48.780;9.216;2022-08-11T14:57:31;31.50;34.30
1704;DHT22;849;48.780;9.216;2022-08-11T15:00:00;31.70;34.00
1704;DHT22;849;48.780;9.216;2022-08-11T15:02:29;31.80;34.50
1704;DHT22;849;48.780;9.216;2022-08-11T15:05:14;31.90;34.00
1704;DHT22;849;48.780;9.216;2022-08-11T15:07:40;32.10;33.70
1704;DHT22;849;48.780;9.216;2022-08-11T15:10:08;32.40;33.80
1704;DHT22;849;48.780;9.216;2022-08-11T15:12:36;33.00;33.20
1704;DHT22;849;48.780;9.216;2022-08-11T15:15:05;34.00;32.60
1704;DHT22;849;48.780;9.216;2022-08-11T15:17:55;35.30;31.50
1704;DHT22;849;48.780;9.216;2022-08-11T15:20:22;37.40;29.70
1704;DHT22;849;48.780;9.216;2022-08-11T15:23:08;38.60;29.00
1704;DHT22;849;48.780;9.216;2022-08-11T15:26:07;39.80;28.40
1704;DHT22;849;48.780;9.216;2022-08-11T15:28:39;40.80;28.10
1704;DHT22;849;48.780;9.216;2022-08-11T15:31:27;42.00;26.80
1704;DHT22;849;48.780;9.216;2022-08-11T15:34:16;42.10;26.80
1704;DHT22;849;48.780;9.216;2022-08-11T15:37:06;42.40;26.40
1704;DHT22;849;48.780;9.216;2022-08-11T15:39:52;42.30;26.50
1704;DHT22;849;48.780;9.216;2022-08-11T15:45:37;44.20;25.60
1704;DHT22;849;48.780;9.216;2022-08-11T15:48:17;44.10;25.00
1704;DHT22;849;48.780;9.216;2022-08-11T15:50:49;43.90;25.60
1704;DHT22;849;48.780;9.216;2022-08-11T15:53:26;44.50;25.50
1704;DHT22;849;48.780;9.216;2022-08-11T15:55:55;44.30;25.40
1704;DHT22;849;48.780;9.216;2022-08-11T15:58:29;44.80;25.40
1704;DHT22;849;48.780;9.216;2022-08-11T16:01:18;45.50;24.40
1704;DHT22;849;48.780;9.216;2022-08-11T16:04:06;45.00;25.00
1704;DHT22;849;48.780;9.216;2022-08-11T16:06:42;44.80;25.20
1704;DHT22;849;48.780;9.216;2022-08-11T16:09:11;44.90;24.80
1704;DHT22;849;48.780;9.216;2022-08-11T16:11:38;44.40;25.10
1704;DHT22;849;48.780;9.216;2022-08-11T16:14:05;44.20;25.20
1704;DHT22;849;48.780;9.216;2022-08-11T16:16:52;44.10;25.30
1704;DHT22;849;48.780;9.216;2022-08-11T16:19:19;43.30;25.40
1704;DHT22;849;48.780;9.216;2022-08-11T16:21:48;43.00;25.60
1704;DHT22;849;48.780;9.216;2022-08-11T16:24:18;42.70;25.70
1704;DHT22;849;48.780;9.216;2022-08-11T16:26:45;41.70;26.10
1704;DHT22;849;48.780;9.216;2022-08-11T16:29:12;40.90;26.70
1704;DHT22;849;48.780;9.216;2022-08-11T16:31:40;40.90;26.40
1704;DHT22;849;48.780;9.216;2022-08-11T16:34:06;40.70;26.90
1704;DHT22;849;48.780;9.216;2022-08-11T16:36:56;40.60;26.90
1704;DHT22;849;48.780;9.216;2022-08-11T16:39:42;41.20;26.60
1704;DHT22;849;48.780;9.216;2022-08-11T16:42:09;41.30;26.70
1704;DHT22;849;48.780;9.216;2022-08-11T16:44:56;41.30;26.40
1704;DHT22;849;48.780;9.216;2022-08-11T16:47:43;40.70;26.40
1704;DHT22;849;48.780;9.216;2022-08-11T16:50:11;39.50;27.10
1704;DHT22;849;48.780;9.216;2022-08-11T16:52:37;39.00;27.30
1704;DHT22;849;48.780;9.216;2022-08-11T16:55:03;37.90;27.60
1704;DHT22;849;48.780;9.216;2022-08-11T16:57:30;37.50;27.70
1704;DHT22;849;48.780;9.216;2022-08-11T17:00:17;36.70;28.40
1704;DHT22;849;48.780;9.216;2022-08-11T17:02:51;36.70;28.90
1704;DHT22;849;48.780;9.216;2022-08-11T17:05:37;36.70;28.60
1704;DHT22;849;48.780;9.216;2022-08-11T17:08:36;36.50;28.70
1704;DHT22;849;48.780;9.216;2022-08-11T17:11:27;35.70;29.30
1704;DHT22;849;48.780;9.216;2022-08-11T17:14:15;35.40;29.80
1704;DHT22;849;48.780;9.216;2022-08-11T17:16:42;34.60;29.60
1704;DHT22;849;48.780;9.216;2022-08-11T17:19:13;34.10;30.40
1704;DHT22;849;48.780;9.216;2022-08-11T17:21:42;33.70;30.40
1704;DHT22;849;48.780;9.216;2022-08-11T17:24:29;33.50;30.60
1704;DHT22;849;48.780;9.216;2022-08-11T17:26:56;33.20;31.00
1704;DHT22;849;48.780;9.216;2022-08-11T17:29:38;32.90;31.40
1704;DHT22;849;48.780;9.216;2022-08-11T17:32:15;32.80;31.20
1704;DHT22;849;48.780;9.216;2022-08-11T17:35:03;32.50;32.00
1704;DHT22;849;48.780;9.216;2022-08-11T17:37:49;32.00;32.10
1704;DHT22;849;48.780;9.216;2022-08-11T17:40:19;31.90;32.50
1704;DHT22;849;48.780;9.216;2022-08-11T17:42:50;31.90;32.20
1704;DHT22;849;48.780;9.216;2022-08-11T17:45:37;32.20;32.90
1704;DHT22;849;48.780;9.216;2022-08-11T17:48:22;32.30;32.30
1704;DHT22;849;48.780;9.216;2022-08-11T17:51:00;31.90;32.20
1704;DHT22;849;48.780;9.216;2022-08-11T17:53:30;31.70;32.70
1704;DHT22;849;48.780;9.216;2022-08-11T17:56:15;31.70;32.90
1704;DHT22;849;48.780;9.216;2022-08-11T17:59:01;31.30;32.60
1704;DHT22;849;48.780;9.216;2022-08-11T18:01:47;30.90;33.00
1704;DHT22;849;48.780;9.216;2022-08-11T18:04:14;30.80;33.40
1704;DHT22;849;48.780;9.216;2022-08-11T18:06:42;30.70;33.30
1704;DHT22;849;48.780;9.216;2022-08-11T18:09:13;30.70;33.40
1704;DHT22;849;48.780;9.216;2022-08-11T18:11:59;30.70;33.60
1704;DHT22;849;48.780;9.216;2022-08-11T18:14:50;30.70;33.70
1704;DHT22;849;48.780;9.216;2022-08-11T18:17:35;30.70;34.20
1704;DHT22;849;48.780;9.216;2022-08-11T18:20:20;30.70;34.90
1704;DHT22;849;48.780;9.216;2022-08-11T18:23:10;30.50;34.60
1704;DHT22;849;48.780;9.216;2022-08-11T18:25:59;30.30;35.20
1704;DHT22;849;48.780;9.216;2022-08-11T18:28:47;30.20;36.30
1704;DHT22;849;48.780;9.216;2022-08-11T18:31:36;30.10;37.30
1704;DHT22;849;48.780;9.216;2022-08-11T18:34:31;30.00;37.90
1704;DHT22;849;48.780;9.216;2022-08-11T18:37:18;29.70;38.40
1704;DHT22;849;48.780;9.216;2022-08-11T18:40:11;29.50;39.10
1704;DHT22;849;48.780;9.216;2022-08-11T18:43:01;29.30;39.60
1704;DHT22;849;48.780;9.216;2022-08-11T18:45:48;29.10;39.70
1704;DHT22;849;48.780;9.216;2022-08-11T18:48:37;28.90;40.00
1704;DHT22;849;48.780;9.216;2022-08-11T18:51:25;28.60;40.20
1704;DHT22;849;48.780;9.216;2022-08-11T18:54:12;28.40;40.30
1704;DHT22;849;48.780;9.216;2022-08-11T18:56:59;28.10;40.20
1704;DHT22;849;48.780;9.216;2022-08-11T18:59:45;28.10;40.00
1704;DHT22;849;48.780;9.216;2022-08-11T19:02:31;27.90;39.60
1704;DHT22;849;48.780;9.216;2022-08-11T19:05:18;27.90;40.30
1704;DHT22;849;48.780;9.216;2022-08-11T19:08:06;27.90;40.50
1704;DHT22;849;48.780;9.216;2022-08-11T19:10:52;27.80;40.60
1704;DHT22;849;48.780;9.216;2022-08-11T19:13:38;27.70;40.90
1704;DHT22;849;48.780;9.216;2022-08-11T19:16:24;27.60;41.20
1704;DHT22;849;48.780;9.216;2022-08-11T19:19:12;27.50;41.50
1704;DHT22;849;48.780;9.216;2022-08-11T19:21:59;27.40;41.70
1704;DHT22;849;48.780;9.216;2022-08-11T19:24:46;27.20;41.90
1704;DHT22;849;48.780;9.216;2022-08-11T19:27:32;27.10;42.00
1704;DHT22;849;48.780;9.216;2022-08-11T19:30:16;26.90;42.20
1704;DHT22;849;48.780;9.216;2022-08-11T19:33:01;26.80;42.30
1704;DHT22;849;48.780;9.216;2022-08-11T19:35:46;26.70;42.80
1704;DHT22;849;48.780;9.216;2022-08-11T19:38:32;26.50;42.80
1704;DHT22;849;48.780;9.216;2022-08-11T19:41:18;26.40;42.50
1704;DHT22;849;48.780;9.216;2022-08-11T19:44:03;26.40;42.90
1704;DHT22;849;48.780;9.216;2022-08-11T19:46:50;26.20;43.10
1704;DHT22;849;48.780;9.216;2022-08-11T19:49:36;26.20;43.50
1704;DHT22;849;48.780;9.216;2022-08-11T19:52:20;26.10;43.50
1704;DHT22;849;48.780;9.216;2022-08-11T19:55:06;26.00;43.60
1704;DHT22;849;48.780;9.216;2022-08-11T19:57:52;26.00;43.60
1704;DHT22;849;48.780;9.216;2022-08-11T20:00:37;25.90;43.80
1704;DHT22;849;48.780;9.216;2022-08-11T20:03:22;25.90;43.60
1704;DHT22;849;48.780;9.216;2022-08-11T20:06:08;25.80;43.80
1704;DHT22;849;48.780;9.216;2022-08-11T20:08:59;25.80;43.50
1704;DHT22;849;48.780;9.216;2022-08-11T20:11:46;25.80;43.80
1704;DHT22;849;48.780;9.216;2022-08-11T20:14:34;25.70;43.80
1704;DHT22;849;48.780;9.216;2022-08-11T20:17:22;25.60;43.80
1704;DHT22;849;48.780;9.216;2022-08-11T20:20:08;25.70;44.20
1704;DHT22;849;48.780;9.216;2022-08-11T20:22:54;25.60;44.00
1704;DHT22;849;48.780;9.216;2022-08-11T20:25:40;25.50;44.00
1704;DHT22;849;48.780;9.216;2022-08-11T20:28:26;25.50;43.80